Terminal Aerodrome Forecast
Issued by NWS

Home | Current Version | Previous Version | Text Only | Print | Product List | Glossary On
Versions: 1 2 3 4 5 6 7 8 9 10 11 12 13 14 15 16 17 18 19 20 21 22 23 24 25 26 27 28 29 30
000
FTUS43 KFGF 211738
TAFTVF
TAF
KTVF 211738Z 2118/2218 13010KT P6SM SCT045
     FM211900 12009KT P6SM VCTS SCT060CB
     FM220000 11007KT P6SM VCTS BKN060CB
     FM220300 08007KT P6SM BKN060
     FM220600 03004KT P6SM SCT050
     FM221000 20004KT P6SM SCT060
     FM221200 25004KT P6SM BKN050
     FM221500 29011KT P6SM SCT040=

USA.gov is the U.S. government's official web portal to all federal, state and local government web resources and services.